Broadview, Indiana
Current Conditions -  °F | °C
As of 8:53 AM on Saturday 25 Oct 2014 (Local Time) from KBMG Reporting Station
Haze Haze  
Wind Chill: 57°   Ceiling: Unl
Heat Index: 57°   Visibility: 4mi
Dew Point: 54°   Wind: 5mph
Humidity: 89%   Direction: 250°WSW
Pressure: 29.99"   Gusts: NA
Location:  38.8737°N, 86.4563°W
Report Text: KBMG 251253Z 25004KT 4SM BR SCT048 14/12 A2999 RMK AO2 SLP155 T01390122
Loading
Personal Weather Stations






























Interactive Weather Map
Tropical Storm Tracking
New forecast layout! Learn more

10-Day Weather Forecast

Advertisements
Track Severe Weather on mobile